Time;durP1;ratioP1;P1;durP2;ratioP2;P2;SDS_P1;SDS_P2;PMS_P1;PMS_P2;Temp;Humidity;BMP_temperature;BMP_pressure;BME280_temperature;BME280_humidity;BME280_pressure;Samples;Min_cycle;Max_cycle;Signal;HPM_P1;HPM_P2
2021/04/26 00:02:24;;;;;;;1.83;1.73;;;23.20;43.20;;;;;;5032462;28;20025;-34
2021/04/26 00:04:49;;;;;;;2.20;2.10;;;23.20;43.10;;;;;;5042444;28;20029;-37
2021/04/26 00:07:15;;;;;;;1.85;1.75;;;23.20;43.10;;;;;;5033499;28;20040;-37
2021/04/26 00:09:41;;;;;;;1.98;1.88;;;23.20;43.20;;;;;;5035030;28;20026;-37
2021/04/26 00:12:07;;;;;;;1.60;1.50;;;23.20;43.10;;;;;;5034300;28;20111;-38
2021/04/26 00:14:33;;;;;;;1.90;1.80;;;23.20;43.20;;;;;;5031086;28;20052;-36
2021/04/26 00:16:58;;;;;;;1.83;1.73;;;23.10;43.30;;;;;;5037480;28;20408;-40
2021/04/26 00:19:24;;;;;;;1.90;1.80;;;23.10;43.50;;;;;;5037408;28;20032;-35
2021/04/26 00:21:49;;;;;;;1.60;1.50;;;23.10;43.60;;;;;;5034755;28;20029;-36
2021/04/26 00:24:15;;;;;;;1.83;1.73;;;23.10;43.50;;;;;;5034399;28;20032;-34
2021/04/26 00:26:40;;;;;;;2.03;1.92;;;23.10;43.50;;;;;;5029313;28;20080;-39
2021/04/26 00:29:06;;;;;;;1.50;1.40;;;23.10;43.40;;;;;;5036859;28;20014;-34
2021/04/26 00:31:32;;;;;;;1.80;1.70;;;23.10;43.40;;;;;;5032824;28;20400;-37
2021/04/26 00:33:57;;;;;;;1.50;1.40;;;23.20;43.40;;;;;;5034852;28;20018;-38
2021/04/26 00:36:23;;;;;;;1.65;1.55;;;23.10;44.10;;;;;;5027527;28;20456;-37
2021/04/26 00:38:48;;;;;;;1.85;1.75;;;23.10;44.20;;;;;;5045702;28;20029;-38
2021/04/26 00:41:14;;;;;;;1.45;1.45;;;23.10;43.60;;;;;;5033815;28;20411;-34
2021/04/26 00:43:39;;;;;;;1.92;1.83;;;23.00;43.80;;;;;;5034035;28;20029;-34
2021/04/26 00:46:05;;;;;;;1.88;1.77;;;23.00;43.70;;;;;;5032890;28;20116;-38
2021/04/26 00:48:30;;;;;;;1.50;1.40;;;23.10;43.60;;;;;;5035121;28;20029;-36
2021/04/26 00:50:56;;;;;;;1.70;1.60;;;23.10;43.50;;;;;;5040016;28;20049;-38
2021/04/26 00:53:21;;;;;;;1.80;1.70;;;23.10;43.40;;;;;;5032343;28;20065;-34
2021/04/26 00:55:47;;;;;;;1.75;1.65;;;23.10;43.60;;;;;;5033226;28;20539;-37
2021/04/26 00:58:13;;;;;;;2.17;1.70;;;23.10;43.50;;;;;;5033770;28;20018;-37
2021/04/26 01:00:38;;;;;;;1.52;1.52;;;23.20;44.10;;;;;;5034072;28;20055;-39
2021/04/26 01:03:04;;;;;;;1.63;1.52;;;23.10;43.40;;;;;;5028051;28;20072;-38
2021/04/26 01:05:31;;;;;;;1.88;1.77;;;23.00;43.60;;;;;;5045052;28;20041;-39
2021/04/26 01:07:56;;;;;;;1.65;1.55;;;23.00;43.50;;;;;;5036407;28;20032;-38
2021/04/26 01:10:26;;;;;;;1.77;1.67;;;23.10;43.40;;;;;;5033915;28;20029;-37
2021/04/26 01:13:26;;;;;;;1.60;1.50;;;23.10;43.60;;;;;;5032630;28;20511;-37
2021/04/26 01:16:08;;;;;;;2.00;1.35;;;23.10;43.50;;;;;;5034028;28;20111;-38
2021/04/26 01:18:45;;;;;;;1.83;1.63;;;23.10;43.50;;;;;;5074231;28;20031;-39
2021/04/26 01:21:53;;;;;;;2.00;1.90;;;23.20;43.40;;;;;;5036725;28;20025;-37
2021/04/26 01:24:46;;;;;;;1.73;1.63;;;23.00;43.60;;;;;;5016906;28;20021;-36
2021/04/26 01:27:23;;;;;;;2.72;1.90;;;23.00;43.70;;;;;;5022304;28;20063;-39
2021/04/26 01:29:49;;;;;;;1.90;1.80;;;22.90;43.80;;;;;;5030402;28;20060;-36
2021/04/26 01:32:21;;;;;;;1.73;1.63;;;23.00;43.70;;;;;;5032686;28;20483;-38
2021/04/26 01:34:47;;;;;;;1.67;1.58;;;22.90;44.00;;;;;;5035162;28;20047;-37
2021/04/26 01:37:14;;;;;;;1.80;1.70;;;22.90;43.70;;;;;;5034665;28;20033;-39
2021/04/26 01:39:40;;;;;;;1.90;1.80;;;22.90;43.80;;;;;;5038389;28;20379;-39
2021/04/26 01:42:06;;;;;;;1.83;1.73;;;22.90;43.80;;;;;;5056713;28;20031;-38
2021/04/26 01:44:31;;;;;;;2.03;1.92;;;23.00;43.70;;;;;;5037668;28;20025;-35
2021/04/26 01:46:57;;;;;;;1.90;1.80;;;23.00;43.70;;;;;;5039005;28;20032;-34
2021/04/26 01:49:22;;;;;;;1.92;1.83;;;23.00;43.60;;;;;;5036135;28;20036;-35
2021/04/26 01:51:48;;;;;;;2.05;1.95;;;23.00;43.70;;;;;;5039959;28;20171;-37
2021/04/26 01:54:14;;;;;;;1.70;1.60;;;22.90;43.80;;;;;;5037738;28;20154;-38
2021/04/26 01:56:39;;;;;;;1.70;1.60;;;22.90;43.80;;;;;;5031805;28;20026;-39
2021/04/26 01:59:05;;;;;;;1.90;1.80;;;23.00;43.80;;;;;;5072438;28;20021;-38
2021/04/26 02:01:30;;;;;;;1.60;1.50;;;23.00;43.80;;;;;;5037216;28;20134;-35
2021/04/26 02:03:58;;;;;;;1.70;1.60;;;23.00;43.70;;;;;;5037499;28;20025;-37
2021/04/26 02:06:23;;;;;;;1.70;1.60;;;23.00;43.70;;;;;;5037391;28;20035;-37
2021/04/26 02:08:50;;;;;;;2.05;1.85;;;22.90;44.50;;;;;;5037448;28;20018;-35
2021/04/26 02:11:15;;;;;;;1.30;1.30;;;22.90;43.90;;;;;;5049675;28;20041;-38
2021/04/26 02:13:42;;;;;;;1.52;1.42;;;22.90;44.00;;;;;;5020877;28;20038;-38
2021/04/26 02:16:07;;;;;;;1.55;1.45;;;22.80;44.20;;;;;;5037464;28;20026;-38
2021/04/26 02:18:33;;;;;;;1.60;1.50;;;22.80;44.10;;;;;;5037236;28;20076;-33
2021/04/26 02:20:59;;;;;;;1.67;1.58;;;22.90;44.10;;;;;;5035680;28;20034;-36
2021/04/26 02:23:25;;;;;;;1.48;1.38;;;22.80;44.10;;;;;;5033980;28;20057;-36
2021/04/26 02:25:50;;;;;;;1.77;1.67;;;22.90;44.00;;;;;;5039599;28;20513;-37
2021/04/26 02:28:16;;;;;;;1.70;1.60;;;22.80;44.20;;;;;;5036847;28;20042;-35
2021/04/26 02:30:41;;;;;;;1.80;1.70;;;22.90;44.10;;;;;;5036564;28;20028;-38
2021/04/26 02:33:18;;;;;;;1.45;1.35;;;22.90;44.10;;;;;;5032765;28;20030;-37
2021/04/26 02:35:54;;;;;;;1.52;1.42;;;22.80;44.30;;;;;;5016261;28;20466;-34
2021/04/26 02:38:27;;;;;;;1.55;1.45;;;22.80;44.90;;;;;;5064681;28;20049;-37
2021/04/26 02:40:56;;;;;;;2.45;1.70;;;22.80;44.80;;;;;;5036991;28;20022;-38
2021/04/26 02:43:22;;;;;;;1.90;1.80;;;22.80;44.30;;;;;;5035966;28;20125;-40
2021/04/26 02:45:52;;;;;;;1.40;1.40;;;22.80;44.50;;;;;;5036358;28;20057;-39
2021/04/26 02:48:18;;;;;;;1.73;1.63;;;22.70;44.50;;;;;;5033424;28;20452;-38
2021/04/26 02:50:44;;;;;;;2.45;1.67;;;22.70;45.10;;;;;;5077440;28;20032;-39
2021/04/26 02:53:11;;;;;;;1.80;1.70;;;22.70;44.90;;;;;;5053427;28;20048;-37
2021/04/26 02:55:37;;;;;;;1.35;1.35;;;22.80;44.80;;;;;;5067101;28;20018;-38
2021/04/26 02:58:03;;;;;;;1.40;1.30;;;22.80;44.70;;;;;;5018396;28;20026;-38
2021/04/26 03:00:28;;;;;;;1.92;1.67;;;22.80;44.70;;;;;;5036718;28;20040;-37
2021/04/26 03:02:54;;;;;;;1.35;1.25;;;22.80;44.70;;;;;;5032013;28;20025;-39
2021/04/26 03:05:20;;;;;;;1.67;1.58;;;22.80;44.60;;;;;;5035161;28;20471;-39
2021/04/26 03:07:45;;;;;;;1.63;1.52;;;22.80;44.70;;;;;;5033217;28;21512;-40
2021/04/26 03:10:13;;;;;;;1.40;1.30;;;22.80;45.40;;;;;;5032304;28;20028;-41
2021/04/26 03:12:40;;;;;;;1.25;1.23;;;22.80;44.80;;;;;;5032794;28;20049;-40
2021/04/26 03:15:10;;;;;;;1.42;1.33;;;22.80;45.30;;;;;;5036380;28;20048;-37
2021/04/26 03:17:36;;;;;;;1.50;1.40;;;22.80;44.70;;;;;;5034642;28;20641;-39
2021/04/26 03:20:04;;;;;;;1.40;1.30;;;22.80;44.70;;;;;;5036268;28;20025;-35
2021/04/26 03:22:30;;;;;;;1.45;1.35;;;22.70;44.80;;;;;;5034508;28;20536;-38
2021/04/26 03:24:55;;;;;;;1.63;1.52;;;22.70;44.80;;;;;;5030456;28;20033;-44
2021/04/26 03:27:21;;;;;;;1.50;1.40;;;22.80;44.90;;;;;;5033558;28;20029;-35
2021/04/26 03:29:48;;;;;;;1.58;1.48;;;22.80;44.90;;;;;;5034092;28;20030;-38
2021/04/26 03:32:14;;;;;;;1.60;1.50;;;22.70;44.90;;;;;;5066889;28;20592;-39
2021/04/26 03:34:40;;;;;;;1.23;1.23;;;22.70;45.50;;;;;;5041180;28;20081;-38
2021/04/26 03:37:06;;;;;;;2.35;1.48;;;22.70;45.00;;;;;;5033967;28;20025;-41
2021/04/26 03:39:32;;;;;;;1.60;1.50;;;22.70;45.10;;;;;;5033674;28;20155;-40
2021/04/26 03:41:57;;;;;;;1.25;1.25;;;22.70;45.10;;;;;;5035497;28;20029;-40
2021/04/26 03:44:23;;;;;;;1.33;1.33;;;22.60;45.30;;;;;;5032820;28;20025;-39
2021/04/26 03:46:56;;;;;;;1.60;1.50;;;22.70;45.20;;;;;;5033164;28;20037;-37
2021/04/26 03:49:22;;;;;;;1.35;1.35;;;22.70;45.30;;;;;;5032685;28;20032;-39
2021/04/26 03:51:48;;;;;;;1.38;1.38;;;22.70;45.20;;;;;;5033192;28;20127;-39
2021/04/26 03:54:13;;;;;;;1.60;1.50;;;22.60;45.20;;;;;;5035019;28;20100;-38
2021/04/26 03:56:40;;;;;;;1.63;1.50;;;22.70;45.20;;;;;;5032594;28;20021;-41
2021/04/26 03:59:05;;;;;;;1.27;1.17;;;22.60;45.20;;;;;;5037023;28;20138;-36
2021/04/26 04:01:31;;;;;;;1.40;1.30;;;22.60;45.30;;;;;;5030851;28;20434;-37
2021/04/26 04:03:56;;;;;;;1.27;1.17;;;22.60;45.20;;;;;;5035456;28;20025;-39
2021/04/26 04:06:22;;;;;;;1.45;1.35;;;22.60;45.20;;;;;;5037036;28;20509;-38
2021/04/26 04:08:48;;;;;;;1.48;1.38;;;22.70;45.30;;;;;;5034530;28;20025;-39
2021/04/26 04:11:14;;;;;;;1.13;1.00;;;22.60;45.30;;;;;;5033402;28;20116;-40
2021/04/26 04:13:40;;;;;;;1.30;1.20;;;22.60;45.50;;;;;;5041035;28;20562;-39
2021/04/26 04:16:06;;;;;;;1.17;1.10;;;22.60;45.40;;;;;;5038111;28;20053;-39
2021/04/26 04:18:31;;;;;;;1.17;1.10;;;22.60;45.50;;;;;;5035109;28;20063;-39
2021/04/26 04:20:57;;;;;;;1.40;1.30;;;22.60;45.50;;;;;;5044173;28;20511;-38
2021/04/26 04:23:22;;;;;;;1.08;1.08;;;22.60;46.20;;;;;;5032973;28;20022;-39
2021/04/26 04:25:48;;;;;;;1.77;1.67;;;22.60;45.30;;;;;;5035882;28;20033;-35
2021/04/26 04:28:14;;;;;;;1.50;1.40;;;22.70;45.30;;;;;;5035385;28;20499;-37
2021/04/26 04:30:39;;;;;;;1.00;1.00;;;22.60;45.20;;;;;;5034013;28;20103;-39
2021/04/26 04:33:05;;;;;;;1.55;1.38;;;22.60;45.20;;;;;;5033788;28;20033;-36
2021/04/26 04:35:30;;;;;;;1.90;1.60;;;22.60;45.20;;;;;;5064260;28;20071;-41
2021/04/26 04:37:56;;;;;;;1.20;1.20;;;22.60;45.30;;;;;;5043835;28;20033;-38
2021/04/26 04:40:21;;;;;;;1.20;1.10;;;22.60;45.30;;;;;;5035504;28;20044;-39
2021/04/26 04:42:47;;;;;;;3.72;1.30;;;22.60;45.20;;;;;;5036399;28;20398;-38
2021/04/26 04:45:13;;;;;;;1.60;1.50;;;22.60;45.50;;;;;;5029539;28;20099;-36
2021/04/26 04:47:38;;;;;;;1.52;1.42;;;22.60;45.30;;;;;;5036127;28;20034;-38
2021/04/26 04:50:05;;;;;;;1.23;1.23;;;22.60;45.40;;;;;;5033136;28;20037;-38
2021/04/26 04:52:30;;;;;;;1.40;1.30;;;22.50;45.40;;;;;;5029792;28;20044;-40
2021/04/26 04:54:56;;;;;;;1.75;1.13;;;22.60;45.50;;;;;;5035179;28;20107;-37
2021/04/26 04:57:21;;;;;;;1.52;1.42;;;22.50;45.60;;;;;;5029534;28;20496;-41
2021/04/26 04:59:47;;;;;;;1.50;1.40;;;22.50;45.60;;;;;;5029816;28;20029;-41
2021/04/26 05:02:12;;;;;;;4.82;1.88;;;22.60;45.60;;;;;;5032184;28;20029;-40
2021/04/26 05:04:38;;;;;;;1.55;1.45;;;22.60;45.40;;;;;;5030491;28;20029;-38
2021/04/26 05:07:05;;;;;;;1.15;1.15;;;22.50;45.40;;;;;;5032230;28;20561;-41
2021/04/26 05:09:30;;;;;;;1.60;1.30;;;22.50;45.60;;;;;;5032347;28;20056;-37
2021/04/26 05:24:55;;;;;;;1.73;0.93;;;22.50;44.80;;;;;;5144653;27;20373;-39
2021/04/26 05:27:21;;;;;;;1.20;1.10;;;22.60;45.40;;;;;;5126937;27;20024;-40
2021/04/26 05:29:46;;;;;;;1.10;1.10;;;22.60;45.30;;;;;;5131931;27;20046;-40
2021/04/26 05:32:12;;;;;;;1.00;1.00;;;22.60;45.30;;;;;;5136790;27;20492;-40
2021/04/26 05:34:37;;;;;;;2.30;1.23;;;22.60;45.20;;;;;;5131538;27;20078;-41
2021/04/26 05:37:03;;;;;;;1.33;1.27;;;22.60;45.80;;;;;;5125770;27;20099;-40
2021/04/26 05:39:28;;;;;;;1.60;1.50;;;22.60;45.10;;;;;;5126593;27;20043;-39
2021/04/26 05:41:54;;;;;;;2.92;1.10;;;22.60;45.10;;;;;;5133217;27;20069;-42
2021/04/26 05:44:20;;;;;;;1.40;1.30;;;22.60;45.10;;;;;;5129706;27;20016;-41
2021/04/26 05:46:45;;;;;;;1.10;1.00;;;22.60;45.20;;;;;;5129458;27;20396;-40
2021/04/26 05:49:11;;;;;;;1.35;1.25;;;22.60;45.30;;;;;;5129121;27;20088;-44
2021/04/26 05:51:37;;;;;;;1.33;1.33;;;22.50;45.50;;;;;;5126457;27;20503;-41
2021/04/26 05:54:02;;;;;;;1.00;1.00;;;22.50;45.50;;;;;;5133713;27;20556;-37
2021/04/26 05:56:28;;;;;;;1.40;1.30;;;22.50;45.60;;;;;;5125235;27;20354;-41
2021/04/26 05:58:53;;;;;;;1.27;1.20;;;22.50;45.80;;;;;;5129423;27;20547;-39
2021/04/26 06:01:19;;;;;;;1.25;1.08;;;22.50;45.60;;;;;;5130152;27;20473;-42
2021/04/26 06:03:45;;;;;;;1.10;1.10;;;22.50;45.60;;;;;;5125186;28;20027;-40
2021/04/26 06:06:10;;;;;;;1.55;1.15;;;22.50;45.50;;;;;;5144340;27;20031;-40
2021/04/26 06:08:36;;;;;;;1.67;1.27;;;22.40;45.60;;;;;;5130630;27;20032;-40
2021/04/26 06:11:01;;;;;;;1.60;1.50;;;22.40;45.70;;;;;;5130935;27;20019;-39
2021/04/26 06:13:27;;;;;;;1.38;1.27;;;22.40;45.60;;;;;;5130794;27;20038;-40
2021/04/26 06:15:53;;;;;;;1.10;1.10;;;22.40;45.60;;;;;;5125392;27;20020;-39
2021/04/26 06:18:24;;;;;;;1.45;1.35;;;22.40;45.50;;;;;;5126867;27;20042;-40
2021/04/26 06:20:50;;;;;;;1.55;1.30;;;22.30;45.60;;;;;;5127095;27;20054;-40
2021/04/26 06:23:16;;;;;;;1.40;1.30;;;22.30;45.70;;;;;;5126971;27;20057;-42
2021/04/26 06:25:43;;;;;;;1.67;1.48;;;22.30;45.70;;;;;;5116327;27;20015;-40
2021/04/26 06:28:09;;;;;;;1.30;1.20;;;22.30;45.80;;;;;;5122561;27;20253;-40
2021/04/26 06:30:36;;;;;;;1.20;1.20;;;22.30;45.70;;;;;;5111893;27;20008;-40
2021/04/26 06:33:01;;;;;;;1.73;1.30;;;22.30;45.80;;;;;;5127096;27;20370;-41
2021/04/26 06:35:27;;;;;;;1.35;1.30;;;22.30;46.40;;;;;;5115131;27;20028;-40
2021/04/26 06:37:52;;;;;;;1.50;1.40;;;22.30;45.70;;;;;;5114780;27;20024;-41
2021/04/26 06:40:18;;;;;;;6.53;1.27;;;22.30;45.70;;;;;;5109688;27;20028;-41
2021/04/26 06:42:44;;;;;;;1.52;1.42;;;22.30;45.50;;;;;;5112308;27;20081;-41
2021/04/26 06:45:10;;;;;;;1.52;1.42;;;22.40;45.50;;;;;;5123963;27;20015;-41
2021/04/26 06:47:36;;;;;;;1.30;1.20;;;22.30;45.70;;;;;;5113406;27;20122;-41
2021/04/26 06:50:02;;;;;;;1.80;1.42;;;22.30;45.60;;;;;;5110293;27;20126;-40
2021/04/26 06:52:27;;;;;;;1.42;1.33;;;22.30;46.10;;;;;;5098864;28;20292;-40
2021/04/26 06:54:53;;;;;;;1.58;1.48;;;22.20;46.10;;;;;;5094823;28;20056;-44
2021/04/26 06:57:19;;;;;;;2.47;1.50;;;22.20;46.20;;;;;;5099101;27;20043;-42
2021/04/26 06:59:44;;;;;;;2.15;1.67;;;22.20;45.80;;;;;;5100905;27;20654;-43
2021/04/26 07:02:11;;;;;;;3.65;2.25;;;22.20;45.20;;;;;;5102982;27;20505;-43
2021/04/26 07:04:36;;;;;;;3.35;2.40;;;22.10;44.10;;;;;;5101846;28;20078;-43
2021/04/26 07:07:02;;;;;;;5.22;3.22;;;22.00;43.90;;;;;;5102070;27;20134;-44
2021/04/26 07:09:28;;;;;;;3.97;2.92;;;22.00;42.60;;;;;;5102849;27;20040;-43
2021/04/26 07:11:54;;;;;;;2.90;2.70;;;22.00;41.80;;;;;;5099935;28;20100;-44
2021/04/26 07:14:20;;;;;;;9.38;2.83;;;21.90;43.50;;;;;;5098002;28;20054;-48
2021/04/26 07:16:46;;;;;;;3.40;2.38;;;21.90;44.30;;;;;;5103369;27;20036;-44
2021/04/26 07:19:12;;;;;;;2.50;2.30;;;22.00;43.60;;;;;;5099183;28;20083;-44
2021/04/26 07:21:38;;;;;;;3.75;2.90;;;22.10;43.30;;;;;;5101701;28;20067;-44
2021/04/26 07:24:04;;;;;;;4.30;2.70;;;21.80;43.50;;;;;;5105390;27;20109;-43
2021/04/26 07:26:29;;;;;;;2.80;2.53;;;21.70;43.50;;;;;;5101174;27;20043;-42
2021/04/26 07:28:55;;;;;;;4.90;2.58;;;21.70;44.40;;;;;;5107788;27;20042;-43
2021/04/26 07:31:20;;;;;;;5.25;2.75;;;21.70;43.70;;;;;;5104855;27;20063;-43
2021/04/26 07:33:46;;;;;;;3.70;2.42;;;21.80;43.80;;;;;;5102831;27;20575;-44
2021/04/26 07:36:12;;;;;;;3.83;2.35;;;21.80;43.80;;;;;;5110504;27;20048;-44
2021/04/26 07:38:37;;;;;;;2.80;2.60;;;21.90;43.80;;;;;;5102928;28;20039;-43
2021/04/26 07:41:03;;;;;;;2.60;2.40;;;22.00;44.20;;;;;;5101647;27;20407;-44
2021/04/26 07:43:28;;;;;;;6.63;2.78;;;22.00;43.80;;;;;;5100355;27;20040;-44
2021/04/26 07:45:54;;;;;;;2.63;2.42;;;22.00;43.40;;;;;;5099055;27;20105;-43
2021/04/26 07:48:20;;;;;;;2.95;2.60;;;22.10;44.10;;;;;;5100750;27;20044;-42
2021/04/26 07:50:46;;;;;;;5.05;2.42;;;22.00;43.80;;;;;;5108197;27;20035;-43
2021/04/26 07:53:12;;;;;;;2.75;2.47;;;22.10;43.50;;;;;;5104580;27;20141;-44
2021/04/26 07:55:38;;;;;;;4.90;2.85;;;22.20;43.40;;;;;;5103037;27;20117;-43
2021/04/26 07:58:03;;;;;;;2.60;2.50;;;22.20;43.30;;;;;;5096988;28;20054;-44
2021/04/26 08:00:32;;;;;;;4.65;2.10;;;22.20;43.00;;;;;;5097157;28;20096;-44
2021/04/26 08:02:58;;;;;;;2.25;1.92;;;22.30;43.00;;;;;;5096882;28;20528;-42
2021/04/26 08:05:24;;;;;;;3.65;2.25;;;22.40;42.50;;;;;;5101738;28;20096;-43
2021/04/26 08:07:49;;;;;;;3.53;2.30;;;22.40;42.60;;;;;;5100074;27;20502;-45
2021/04/26 08:10:15;;;;;;;2.47;2.22;;;22.40;42.30;;;;;;5099323;27;20071;-44
2021/04/26 08:12:40;;;;;;;3.13;2.03;;;22.40;42.70;;;;;;5100778;27;20052;-44
2021/04/26 08:15:07;;;;;;;2.40;1.92;;;22.40;42.60;;;;;;5102330;27;20142;-42
2021/04/26 08:17:33;;;;;;;2.15;1.92;;;22.30;43.00;;;;;;5102554;27;21531;-46
2021/04/26 08:19:58;;;;;;;2.83;2.00;;;22.30;42.80;;;;;;5095604;28;20043;-44
2021/04/26 08:22:24;;;;;;;3.92;2.08;;;22.20;43.20;;;;;;5102207;27;20039;-39
2021/04/26 08:24:50;;;;;;;2.90;1.90;;;22.20;43.20;;;;;;5104742;28;20048;-43
2021/04/26 08:27:15;;;;;;;2.03;1.92;;;22.20;43.30;;;;;;5107480;28;20043;-43
2021/04/26 08:29:41;;;;;;;5.93;2.50;;;22.10;42.60;;;;;;5097945;28;20052;-44
2021/04/26 08:32:06;;;;;;;2.30;2.10;;;22.20;42.70;;;;;;5097026;27;20861;-43
2021/04/26 08:34:32;;;;;;;1.73;1.63;;;22.20;43.70;;;;;;5097417;28;20464;-43
2021/04/26 08:36:57;;;;;;;4.20;1.80;;;22.20;42.90;;;;;;5094643;27;20085;-44
2021/04/26 08:39:23;;;;;;;3.38;1.80;;;22.30;42.70;;;;;;5100689;28;20044;-45
2021/04/26 08:41:48;;;;;;;9.43;2.10;;;22.20;43.00;;;;;;5098276;27;20035;-45
2021/04/26 08:44:14;;;;;;;2.63;1.88;;;22.30;43.00;;;;;;5100133;27;20044;-43
2021/04/26 08:46:44;;;;;;;2.83;1.85;;;22.30;43.00;;;;;;5097222;28;20031;-43
2021/04/26 08:49:11;;;;;;;2.25;2.03;;;22.40;42.90;;;;;;5095637;28;20027;-44
2021/04/26 08:51:39;;;;;;;3.92;1.90;;;22.50;42.10;;;;;;5099813;27;20044;-44
2021/04/26 08:54:05;;;;;;;3.75;1.85;;;22.50;42.30;;;;;;5101635;27;20059;-45
2021/04/26 08:56:31;;;;;;;2.50;2.00;;;22.50;42.00;;;;;;5098718;28;20077;-43
2021/04/26 08:58:56;;;;;;;2.05;1.90;;;22.60;41.70;;;;;;5096303;27;20048;-40
2021/04/26 09:01:22;;;;;;;5.10;2.13;;;22.60;41.60;;;;;;5096491;28;20054;-43
2021/04/26 09:03:48;;;;;;;3.20;2.30;;;22.60;41.50;;;;;;5101121;27;20036;-39
2021/04/26 09:06:14;;;;;;;2.65;2.15;;;22.60;41.40;;;;;;5102713;28;20076;-44
2021/04/26 09:08:51;;;;;;;2.25;1.77;;;22.60;41.70;;;;;;5103066;27;20048;-45
2021/04/26 09:11:17;;;;;;;2.50;2.15;;;22.50;41.40;;;;;;5100125;28;20547;-44
2021/04/26 09:13:49;;;;;;;1.90;1.80;;;22.70;41.10;;;;;;5098262;27;20082;-42
2021/04/26 09:16:22;;;;;;;4.78;2.33;;;22.60;41.10;;;;;;5095445;28;20101;-41
2021/04/26 09:18:57;;;;;;;2.78;2.45;;;22.70;40.90;;;;;;5100713;27;20068;-42
2021/04/26 09:21:35;;;;;;;3.65;2.10;;;22.70;40.70;;;;;;5093179;27;20078;-43
2021/04/26 09:24:28;;;;;;;2.15;1.95;;;22.70;41.30;;;;;;5108404;27;20051;-44
2021/04/26 09:27:06;;;;;;;2.78;1.85;;;22.60;41.00;;;;;;5094381;28;20605;-47
2021/04/26 09:29:32;;;;;;;2.05;1.88;;;22.60;41.10;;;;;;5101259;27;20054;-44
2021/04/26 09:31:59;;;;;;;2.50;1.90;;;22.70;40.80;;;;;;5097645;27;20856;-45
2021/04/26 09:34:48;;;;;;;4.75;2.15;;;22.70;40.70;;;;;;5094067;27;20048;-44
2021/04/26 09:37:20;;;;;;;4.10;1.80;;;22.70;40.80;;;;;;5096919;27;20052;-44
2021/04/26 09:40:05;;;;;;;3.00;1.88;;;22.70;40.90;;;;;;5096251;27;20821;-43
2021/04/26 09:42:48;;;;;;;2.40;1.70;;;22.70;41.20;;;;;;5099644;27;20604;-43
2021/04/26 09:45:28;;;;;;;1.75;1.65;;;22.60;42.00;;;;;;5097771;27;20100;-43
2021/04/26 09:48:13;;;;;;;2.58;2.20;;;22.70;41.10;;;;;;5104193;28;20520;-45
2021/04/26 09:51:20;;;;;;;2.75;1.70;;;22.70;41.10;;;;;;5097173;28;20505;-46
2021/04/26 09:53:52;;;;;;;3.78;1.83;;;22.70;41.10;;;;;;5097386;27;20047;-45
2021/04/26 09:56:23;;;;;;;1.92;1.80;;;22.70;40.80;;;;;;5095295;27;20059;-45
2021/04/26 09:58:53;;;;;;;2.70;1.90;;;22.70;40.60;;;;;;5095872;28;20040;-45
2021/04/26 10:01:19;;;;;;;2.25;1.88;;;22.80;40.60;;;;;;5101122;27;20816;-44
2021/04/26 10:03:44;;;;;;;1.65;1.55;;;22.80;40.40;;;;;;5095570;28;20532;-45
2021/04/26 10:06:13;;;;;;;1.80;1.70;;;22.80;40.40;;;;;;5109843;27;20040;-41
2021/04/26 10:08:38;;;;;;;2.10;2.00;;;22.80;40.80;;;;;;5102199;28;20040;-46
2021/04/26 10:11:04;;;;;;;1.90;1.70;;;22.80;41.10;;;;;;5100414;28;20053;-44
2021/04/26 10:13:31;;;;;;;1.92;1.83;;;22.70;41.30;;;;;;5106333;27;20055;-44
2021/04/26 10:15:59;;;;;;;2.97;1.73;;;22.60;41.10;;;;;;5105941;28;20043;-45
2021/04/26 10:18:50;;;;;;;3.30;1.60;;;22.70;41.20;;;;;;5104820;28;20063;-44
2021/04/26 10:21:18;;;;;;;2.22;1.70;;;22.70;41.50;;;;;;5106598;27;20052;-40
2021/04/26 10:23:45;;;;;;;2.35;2.15;;;22.80;41.30;;;;;;5106733;28;20128;-41
2021/04/26 10:26:40;;;;;;;1.85;1.60;;;22.80;41.20;;;;;;5103664;27;20096;-43
2021/04/26 10:29:13;;;;;;;2.45;1.70;;;22.80;41.80;;;;;;5099304;27;20079;-43
2021/04/26 10:31:57;;;;;;;1.87;1.77;;;22.70;42.10;;;;;;5101129;27;20611;-43
2021/04/26 10:34:23;;;;;;;2.65;1.75;;;22.80;41.60;;;;;;5106110;27;20401;-44
2021/04/26 10:36:57;;;;;;;3.30;1.38;;;22.70;42.30;;;;;;5108952;27;20040;-43
2021/04/26 10:39:24;;;;;;;1.48;1.38;;;22.50;43.50;;;;;;5104561;27;20052;-43
2021/04/26 10:41:56;;;;;;;2.33;1.80;;;22.50;43.40;;;;;;5123109;27;20382;-42
2021/04/26 10:44:40;;;;;;;3.30;1.90;;;22.40;43.70;;;;;;5099401;27;20128;-43
2021/04/26 10:47:16;;;;;;;1.85;1.75;;;22.40;43.50;;;;;;5104128;27;20620;-44
2021/04/26 10:49:42;;;;;;;2.17;1.90;;;22.40;44.30;;;;;;5103063;27;20092;-42
2021/04/26 10:52:28;;;;;;;2.67;1.60;;;22.20;44.80;;;;;;5104328;27;20562;-43
2021/04/26 10:54:58;;;;;;;2.85;1.70;;;22.20;44.90;;;;;;5081729;27;20626;-43
2021/04/26 10:57:45;;;;;;;2.53;1.70;;;22.10;45.30;;;;;;5105235;27;20462;-44
2021/04/26 11:00:23;;;;;;;1.75;1.65;;;22.20;45.30;;;;;;5102246;27;20070;-45
2021/04/26 11:03:11;;;;;;;1.98;1.60;;;22.20;45.40;;;;;;5106434;28;20028;-44
2021/04/26 11:05:44;;;;;;;2.20;1.75;;;22.20;45.50;;;;;;5098504;28;20078;-45
2021/04/26 11:08:36;;;;;;;1.88;1.40;;;22.20;45.30;;;;;;5097022;27;20032;-45
2021/04/26 11:13:34;;;;;;;3.80;1.95;;;22.50;44.60;;;;;;5101388;27;20088;-40
2021/04/26 11:16:10;;;;;;;3.42;2.17;;;22.50;44.10;;;;;;5103290;27;20460;-41
2021/04/26 11:18:40;;;;;;;2.72;1.75;;;22.30;44.50;;;;;;5103111;27;20062;-41
2021/04/26 11:21:06;;;;;;;2.88;1.95;;;22.20;44.10;;;;;;5100114;27;20050;-43
2021/04/26 11:23:48;;;;;;;4.43;1.77;;;22.20;44.70;;;;;;5099200;27;20073;-42
2021/04/26 11:26:16;;;;;;;4.20;1.88;;;22.30;43.90;;;;;;5105157;27;20051;-44
2021/04/26 11:29:11;;;;;;;1.95;1.50;;;22.40;43.90;;;;;;5099458;27;20055;-44
2021/04/26 11:31:56;;;;;;;1.50;1.40;;;22.40;42.70;;;;;;5100544;27;20048;-43
2021/04/26 11:34:22;;;;;;;3.20;1.95;;;22.30;44.30;;;;;;5087947;28;20090;-44
2021/04/26 11:37:03;;;;;;;7.03;1.70;;;22.50;43.70;;;;;;5102291;27;20071;-43
2021/04/26 11:39:33;;;;;;;1.83;1.73;;;22.40;43.90;;;;;;5095806;28;20035;-43
2021/04/26 11:41:58;;;;;;;3.10;1.80;;;22.40;43.40;;;;;;5108019;27;20085;-44
2021/04/26 11:44:32;;;;;;;1.90;1.60;;;22.40;44.00;;;;;;5100055;27;20051;-43
2021/04/26 11:47:04;;;;;;;1.83;1.73;;;22.60;43.90;;;;;;5092729;28;20047;-45
2021/04/26 11:49:33;;;;;;;2.85;1.80;;;22.70;43.60;;;;;;5098110;28;20040;-44
2021/04/26 11:51:58;;;;;;;3.13;2.10;;;22.80;43.70;;;;;;5098154;27;20536;-44
2021/04/26 11:54:28;;;;;;;3.53;1.83;;;22.60;43.40;;;;;;5099606;27;20044;-44
2021/04/26 11:57:11;;;;;;;1.63;1.52;;;22.70;43.50;;;;;;5105667;27;20071;-42
2021/04/26 11:59:56;;;;;;;2.22;1.38;;;22.90;43.00;;;;;;5100004;27;20141;-44
2021/04/26 12:02:44;;;;;;;2.47;1.80;;;23.00;42.90;;;;;;5102551;27;20039;-44
2021/04/26 12:05:12;;;;;;;5.78;1.70;;;23.00;42.80;;;;;;5099605;27;20654;-44
2021/04/26 12:07:38;;;;;;;3.05;2.13;;;22.90;43.30;;;;;;5101275;27;20078;-43
2021/04/26 12:10:07;;;;;;;1.70;1.60;;;23.00;43.10;;;;;;5101394;28;20043;-44
2021/04/26 12:12:33;;;;;;;1.65;1.55;;;23.00;43.30;;;;;;5099252;27;20088;-45
2021/04/26 12:15:04;;;;;;;2.40;1.80;;;23.00;42.80;;;;;;5105612;28;20404;-44
2021/04/26 12:17:34;;;;;;;4.03;2.00;;;23.10;43.10;;;;;;5095035;28;20044;-44
2021/04/26 12:20:00;;;;;;;2.95;2.20;;;23.10;43.10;;;;;;5099246;27;20451;-44
2021/04/26 12:22:26;;;;;;;2.05;1.75;;;23.10;42.00;;;;;;5090167;27;20739;-41
2021/04/26 12:24:54;;;;;;;2.15;1.65;;;23.10;42.50;;;;;;5102017;28;20056;-43
2021/04/26 12:27:23;;;;;;;2.00;1.90;;;23.20;42.00;;;;;;5099765;28;20066;-42
2021/04/26 12:29:49;;;;;;;1.90;1.80;;;23.00;43.00;;;;;;5102157;27;20509;-44
2021/04/26 12:32:18;;;;;;;2.25;1.77;;;23.00;43.30;;;;;;5102874;27;20040;-45
2021/04/26 12:35:00;;;;;;;2.15;1.63;;;23.00;43.40;;;;;;5097044;28;20051;-44
2021/04/26 12:37:40;;;;;;;1.60;1.50;;;23.00;43.30;;;;;;5099164;27;20058;-45
2021/04/26 12:40:13;;;;;;;1.80;1.70;;;23.10;43.30;;;;;;5100519;28;20055;-45
2021/04/26 12:42:40;;;;;;;1.88;1.75;;;23.20;42.20;;;;;;5096706;27;20043;-46
2021/04/26 12:45:16;;;;;;;1.98;1.77;;;23.20;42.80;;;;;;5106425;28;20032;-44
2021/04/26 12:47:48;;;;;;;3.20;2.10;;;23.10;42.50;;;;;;5103170;28;20083;-43
2021/04/26 12:50:15;;;;;;;1.55;1.45;;;23.10;42.50;;;;;;5100228;28;20059;-45
2021/04/26 12:52:40;;;;;;;2.40;1.73;;;23.20;42.80;;;;;;5102509;28;22815;-44
2021/04/26 12:55:08;;;;;;;1.98;1.70;;;23.10;42.70;;;;;;5101381;28;20035;-43
2021/04/26 12:57:34;;;;;;;1.95;1.85;;;23.10;42.60;;;;;;5097880;28;20044;-41
2021/04/26 12:59:59;;;;;;;2.55;1.42;;;23.20;42.40;;;;;;5102350;27;20072;-44
2021/04/26 13:02:28;;;;;;;1.75;1.65;;;23.20;43.10;;;;;;5097286;28;20040;-44
2021/04/26 13:04:56;;;;;;;2.03;1.58;;;23.00;43.50;;;;;;5095742;28;20131;-43
2021/04/26 13:07:22;;;;;;;2.72;1.90;;;23.00;42.30;;;;;;5099740;28;20035;-45
2021/04/26 13:09:58;;;;;;;2.17;1.50;;;23.10;41.40;;;;;;5105245;27;20044;-44
2021/04/26 13:12:27;;;;;;;4.63;1.65;;;23.30;41.50;;;;;;5097822;28;20032;-44